createdAt,value
2023-03-02T00:00:35.559Z,100547.12
2023-03-02T00:01:53.532Z,100547.27
2023-03-02T00:03:04.108Z,100545.50
2023-03-02T00:05:32.971Z,100546.23
2023-03-02T00:06:42.209Z,100550.00
2023-03-02T00:07:51.926Z,100544.66
2023-03-02T00:09:02.631Z,100537.61
2023-03-02T00:10:12.332Z,100542.90
2023-03-02T00:11:22.009Z,100545.61
2023-03-02T00:12:34.069Z,100543.84
2023-03-02T00:13:43.805Z,100543.89
2023-03-02T00:14:52.443Z,100543.90
2023-03-02T00:16:01.154Z,100536.93
2023-03-02T00:17:13.221Z,100540.58
2023-03-02T00:18:24.127Z,100533.56
2023-03-02T00:19:33.088Z,100537.97
2023-03-02T00:21:57.858Z,100525.62
2023-03-02T00:23:07.085Z,100532.05
2023-03-02T00:24:16.885Z,100535.49
2023-03-02T00:25:26.002Z,100527.55
2023-03-02T00:26:36.279Z,100534.64
2023-03-02T00:27:45.470Z,100533.75
2023-03-02T00:28:53.997Z,100532.89
2023-03-02T00:30:04.221Z,100536.39
2023-03-02T00:31:13.284Z,100531.98
2023-03-02T00:32:22.667Z,100533.70
2023-03-02T00:33:32.723Z,100524.81
2023-03-02T00:34:42.285Z,100533.66
2023-03-02T00:35:51.877Z,100531.09
2023-03-02T00:37:01.673Z,100525.04
2023-03-02T00:38:11.178Z,100532.98
2023-03-02T00:39:20.596Z,100530.55
2023-03-02T00:40:30.329Z,100527.39
2023-03-02T00:41:39.782Z,100521.97
2023-03-02T00:42:48.686Z,100523.72
2023-03-02T00:43:58.096Z,100532.47
2023-03-02T00:45:07.795Z,100528.88
2023-03-02T00:46:21.615Z,100528.80
2023-03-02T00:47:32.619Z,100517.31
2023-03-02T00:48:42.886Z,100516.55
2023-03-02T00:49:52.396Z,100527.94
2023-03-02T00:52:17.067Z,100526.78
2023-03-02T00:53:26.206Z,100519.95
2023-03-02T00:54:35.534Z,100521.70
2023-03-02T00:55:53.235Z,100518.16
2023-03-02T00:57:03.271Z,100525.20
2023-03-02T00:58:13.031Z,100521.70
2023-03-02T00:59:26.347Z,100513.81
2023-03-02T01:00:38.060Z,100520.04
2023-03-02T01:01:50.833Z,100518.20
2023-03-02T01:03:00.815Z,100517.31
2023-03-02T01:04:09.508Z,100528.76
2023-03-02T01:06:33.575Z,100519.78
2023-03-02T01:07:43.959Z,100517.44
2023-03-02T01:08:52.613Z,100512.09
2023-03-02T01:10:01.650Z,100516.41
2023-03-02T01:11:20.906Z,100513.72
2023-03-02T01:12:29.549Z,100513.72
2023-03-02T01:13:37.962Z,100511.11
2023-03-02T01:14:50.728Z,100520.77
2023-03-02T01:16:03.198Z,100519.02
2023-03-02T01:17:13.029Z,100515.52
2023-03-02T01:19:39.610Z,100512.73
2023-03-02T01:20:49.237Z,100514.80
2023-03-02T01:21:59.052Z,100508.64
2023-03-02T01:23:08.585Z,100513.04
2023-03-02T01:24:19.312Z,100511.25
2023-03-02T01:25:28.465Z,100514.87
2023-03-02T01:26:38.855Z,100511.33
2023-03-02T01:27:48.001Z,100510.39
2023-03-02T01:28:57.323Z,100513.12
2023-03-02T01:31:42.658Z,100504.97
2023-03-02T01:32:51.745Z,100498.17
2023-03-02T01:34:00.586Z,100505.18
2023-03-02T01:35:09.941Z,100504.20
2023-03-02T01:36:19.288Z,100502.45
2023-03-02T01:37:29.063Z,100504.29
2023-03-02T01:38:38.788Z,100502.53
2023-03-02T01:39:47.675Z,100500.74
2023-03-02T01:40:57.101Z,100495.53
2023-03-02T01:43:23.956Z,100489.13
2023-03-02T01:46:09.111Z,100497.91
2023-03-02T01:49:00.544Z,100490.91
2023-03-02T01:50:20.755Z,100483.36
2023-03-02T01:51:34.464Z,100491.30
2023-03-02T01:52:45.943Z,100495.66
2023-03-02T01:54:05.150Z,100491.30
2023-03-02T01:55:17.805Z,100490.50
2023-03-02T01:56:30.745Z,100489.55
2023-03-02T01:57:45.252Z,100489.55
2023-03-02T01:58:59.554Z,100499.25
2023-03-02T02:00:15.483Z,100491.31
2023-03-02T02:01:25.372Z,100497.50
2023-03-02T02:02:36.115Z,100492.25
2023-03-02T02:03:49.019Z,100488.80
2023-03-02T02:04:59.754Z,100480.72
2023-03-02T02:06:29.186Z,100488.66
2023-03-02T02:07:39.998Z,100488.57
2023-03-02T02:08:49.789Z,100494.69
2023-03-02T02:09:59.996Z,100489.47
2023-03-02T02:11:09.854Z,100485.92
2023-03-02T02:13:37.608Z,100486.66
2023-03-02T02:14:48.193Z,100492.20
2023-03-02T02:15:57.527Z,100493.91
2023-03-02T02:18:21.664Z,100487.38
2023-03-02T02:21:06.506Z,100495.45
2023-03-02T02:22:17.740Z,100502.03
2023-03-02T02:23:36.534Z,100500.36
2023-03-02T02:24:49.406Z,100503.01
2023-03-02T02:26:06.952Z,100498.57
2023-03-02T02:27:15.868Z,100500.31
2023-03-02T02:28:47.694Z,100498.57
2023-03-02T02:29:58.493Z,100502.97
2023-03-02T02:31:17.980Z,100499.42
2023-03-02T02:32:33.121Z,100494.09
2023-03-02T02:33:45.819Z,100503.87
2023-03-02T02:35:02.056Z,100500.36
2023-03-02T02:36:18.630Z,100495.06
2023-03-02T02:37:47.094Z,100495.02
2023-03-02T02:38:59.653Z,100495.02
2023-03-02T02:41:32.525Z,100477.08
2023-03-02T02:42:46.993Z,100487.89
2023-03-02T02:43:57.011Z,100486.10
2023-03-02T02:45:10.403Z,100477.30
2023-03-02T02:46:20.345Z,100484.35
2023-03-02T02:47:30.313Z,100482.69
2023-03-02T02:48:40.461Z,100479.19
2023-03-02T02:51:12.792Z,100475.38
2023-03-02T02:52:26.477Z,100479.10
2023-03-02T02:54:58.827Z,100482.64
2023-03-02T02:56:09.868Z,100481.91
2023-03-02T02:57:21.093Z,100480.46
2023-03-02T02:59:59.878Z,100484.60
2023-03-02T03:02:30.848Z,100481.19
2023-03-02T03:03:44.759Z,100473.47
2023-03-02T03:05:00.211Z,100484.00
2023-03-02T03:07:30.779Z,100480.03
2023-03-02T03:08:48.686Z,100486.64
2023-03-02T03:10:15.489Z,100491.89
2023-03-02T03:11:28.526Z,100486.52
2023-03-02T03:12:40.386Z,100487.33
2023-03-02T03:13:53.892Z,100489.05
2023-03-02T03:15:04.776Z,100488.15
2023-03-02T03:16:17.566Z,100491.70
2023-03-02T03:17:26.141Z,100494.30
2023-03-02T03:18:39.054Z,100496.17
2023-03-02T03:19:48.097Z,100488.19
2023-03-02T03:20:58.830Z,100479.39
2023-03-02T03:22:11.474Z,100484.78
2023-03-02T03:23:21.431Z,100480.38
2023-03-02T03:24:33.549Z,100480.46
2023-03-02T03:25:43.355Z,100485.72
2023-03-02T03:26:57.247Z,100479.52
2023-03-02T03:28:07.334Z,100482.13
2023-03-02T03:29:22.350Z,100474.11
2023-03-02T03:30:31.023Z,100480.25
2023-03-02T03:31:41.212Z,100478.45
2023-03-02T03:32:51.140Z,100481.31
2023-03-02T03:34:01.318Z,100478.66
2023-03-02T03:35:12.377Z,100474.23
2023-03-02T03:36:22.942Z,100479.44
2023-03-02T03:37:32.895Z,100479.40
2023-03-02T03:38:43.699Z,100480.42
2023-03-02T03:39:53.409Z,100480.38
2023-03-02T03:42:18.646Z,100475.64
2023-03-02T03:43:31.453Z,100468.00
2023-03-02T03:44:41.922Z,100476.75
2023-03-02T03:45:52.591Z,100470.56
2023-03-02T03:47:02.438Z,100470.56
2023-03-02T03:48:11.718Z,100467.87
2023-03-02T03:49:21.474Z,100474.95
2023-03-02T03:50:31.436Z,100468.08
2023-03-02T03:51:41.563Z,100468.16
2023-03-02T03:52:51.696Z,100461.90
2023-03-02T03:54:05.634Z,100466.33
2023-03-02T03:56:35.489Z,100458.99
2023-03-02T03:57:45.457Z,100461.86
2023-03-02T03:58:57.355Z,100465.47
2023-03-02T04:00:09.954Z,100465.44
2023-03-02T04:01:22.504Z,100470.77
2023-03-02T04:02:32.522Z,100466.33
2023-03-02T04:03:41.238Z,100471.59
2023-03-02T04:04:51.121Z,100466.45
2023-03-02T04:07:16.777Z,100456.47
2023-03-02T04:08:27.192Z,100463.81
2023-03-02T04:09:37.949Z,100475.29
2023-03-02T04:10:50.994Z,100476.15
2023-03-02T04:12:00.570Z,100471.75
2023-03-02T04:13:11.748Z,100470.86
2023-03-02T04:14:23.553Z,100463.84
2023-03-02T04:15:33.336Z,100467.39
2023-03-02T04:16:43.251Z,100462.02
2023-03-02T04:17:53.371Z,100466.45
2023-03-02T04:19:07.004Z,100465.56
2023-03-02T04:20:19.941Z,100466.41
2023-03-02T04:21:30.451Z,100464.63
2023-03-02T04:22:39.387Z,100461.98
2023-03-02T04:23:48.480Z,100462.87
2023-03-02T04:24:57.089Z,100463.05
2023-03-02T04:26:06.958Z,100473.55
2023-03-02T04:27:17.826Z,100467.47
2023-03-02T04:28:26.861Z,100472.00
2023-03-02T04:29:38.598Z,100464.06
2023-03-02T04:30:49.180Z,100459.66
2023-03-02T04:31:59.177Z,100462.23
2023-03-02T04:33:10.187Z,100458.69
2023-03-02T04:34:19.425Z,100460.52
2023-03-02T04:35:29.606Z,100458.69
2023-03-02T04:36:40.066Z,100455.14
2023-03-02T04:37:51.578Z,100466.50
2023-03-02T04:39:00.979Z,100471.78
2023-03-02T04:40:13.190Z,100469.23
2023-03-02T04:42:39.865Z,100459.30
2023-03-02T04:43:49.868Z,100461.21
2023-03-02T04:45:00.826Z,100456.85
2023-03-02T04:46:14.477Z,100461.25
2023-03-02T04:47:24.718Z,100463.86
2023-03-02T04:48:34.858Z,100459.41
2023-03-02T04:49:44.571Z,100459.41
2023-03-02T04:50:53.522Z,100458.65
2023-03-02T04:52:02.654Z,100468.13
2023-03-02T04:53:12.684Z,100472.19
2023-03-02T04:54:26.083Z,100464.83
2023-03-02T04:55:36.875Z,100457.48
2023-03-02T04:56:48.358Z,100462.28
2023-03-02T04:57:57.992Z,100462.47
2023-03-02T04:59:08.520Z,100459.04
2023-03-02T05:00:20.843Z,100452.16
2023-03-02T05:01:29.997Z,100456.67
2023-03-02T05:02:40.954Z,100453.09
2023-03-02T05:03:51.479Z,100461.73
2023-03-02T05:05:01.045Z,100447.45
2023-03-02T05:06:10.338Z,100451.91
2023-03-02T05:07:19.849Z,100460.68
2023-03-02T05:09:44.219Z,100458.13
2023-03-02T05:10:53.647Z,100459.52
2023-03-02T05:12:03.152Z,100464.45
2023-03-02T05:13:11.550Z,100463.66
2023-03-02T05:14:20.518Z,100472.55
2023-03-02T05:15:38.319Z,100458.83
2023-03-02T05:16:49.887Z,100476.73
2023-03-02T05:18:00.713Z,100472.38
2023-03-02T05:19:10.864Z,100472.10
2023-03-02T05:20:23.408Z,100483.30
2023-03-02T05:21:32.068Z,100480.75
2023-03-02T05:22:40.708Z,100477.98
2023-03-02T05:23:50.188Z,100481.55
2023-03-02T05:24:58.628Z,100481.09
2023-03-02T05:26:08.402Z,100486.84
2023-03-02T05:27:17.925Z,100479.23
2023-03-02T05:28:28.146Z,100476.63
2023-03-02T05:29:38.187Z,100490.94
2023-03-02T05:30:47.942Z,100479.30
2023-03-02T05:31:57.725Z,100483.38
2023-03-02T05:33:07.553Z,100487.45
2023-03-02T05:34:18.398Z,100489.92
2023-03-02T05:35:27.195Z,100489.20
2023-03-02T05:36:36.561Z,100481.30
2023-03-02T05:37:45.928Z,100485.96
2023-03-02T05:38:56.385Z,100493.39
2023-03-02T05:40:06.892Z,100489.67
2023-03-02T05:41:17.510Z,100488.58
2023-03-02T05:42:26.461Z,100479.32
2023-03-02T05:43:36.745Z,100482.78
2023-03-02T05:46:00.036Z,100490.13
2023-03-02T05:47:09.618Z,100493.48
2023-03-02T05:48:19.023Z,100490.63
2023-03-02T05:49:27.855Z,100498.03
2023-03-02T05:50:38.424Z,100501.55
2023-03-02T05:51:46.993Z,100496.19
2023-03-02T05:52:58.816Z,100494.25
2023-03-02T05:54:07.711Z,100499.91
2023-03-02T05:55:17.444Z,100506.87
2023-03-02T05:56:26.462Z,100511.45
2023-03-02T05:57:35.373Z,100502.42
2023-03-02T05:58:44.101Z,100505.26
2023-03-02T05:59:52.864Z,100516.68
2023-03-02T06:01:04.798Z,100508.17
2023-03-02T06:02:14.364Z,100517.70
2023-03-02T06:03:23.077Z,100515.31
2023-03-02T06:04:32.883Z,100516.12
2023-03-02T06:05:41.506Z,100513.11
2023-03-02T06:06:50.731Z,100514.84
2023-03-02T06:07:59.340Z,100521.06
2023-03-02T06:09:08.232Z,100520.10
2023-03-02T06:10:18.579Z,100515.00
2023-03-02T06:11:28.177Z,100513.50
2023-03-02T06:12:37.314Z,100515.32
2023-03-02T06:13:46.430Z,100517.46
2023-03-02T06:14:56.102Z,100511.47
2023-03-02T06:17:20.580Z,100501.75
2023-03-02T06:18:29.320Z,100514.95
2023-03-02T06:19:38.135Z,100519.20
2023-03-02T06:20:47.282Z,100510.38
2023-03-02T06:21:56.849Z,100514.34
2023-03-02T06:23:06.442Z,100515.44
2023-03-02T06:24:15.537Z,100518.27
2023-03-02T06:25:25.549Z,100508.27
2023-03-02T06:26:34.973Z,100516.69
2023-03-02T06:27:45.007Z,100516.89
2023-03-02T06:28:54.195Z,100517.46
2023-03-02T06:31:20.029Z,100513.45
2023-03-02T06:32:32.569Z,100512.66
2023-03-02T06:33:41.762Z,100508.77
2023-03-02T06:36:06.372Z,100512.83
2023-03-02T06:37:16.102Z,100515.11
2023-03-02T06:38:25.319Z,100508.13
2023-03-02T06:39:35.152Z,100513.52
2023-03-02T06:40:44.680Z,100509.70
2023-03-02T06:43:10.403Z,100504.63
2023-03-02T06:44:18.951Z,100507.73
2023-03-02T06:46:45.947Z,100504.72
2023-03-02T06:47:55.109Z,100504.34
2023-03-02T06:49:04.273Z,100503.73
2023-03-02T06:50:13.493Z,100504.77
2023-03-02T06:51:22.290Z,100502.73
2023-03-02T06:52:31.061Z,100507.59
2023-03-02T06:53:39.631Z,100511.16
2023-03-02T06:54:49.395Z,100509.41
2023-03-02T06:55:57.903Z,100509.86
2023-03-02T06:57:08.146Z,100512.25
2023-03-02T06:58:17.002Z,100512.31
2023-03-02T06:59:26.257Z,100501.66
2023-03-02T07:00:34.915Z,100511.43
2023-03-02T07:01:43.999Z,100507.97
2023-03-02T07:02:53.294Z,100518.77
2023-03-02T07:04:02.991Z,100513.41
2023-03-02T07:05:12.660Z,100513.44
2023-03-02T07:06:21.841Z,100509.98
2023-03-02T07:08:46.798Z,100498.41
2023-03-02T07:09:56.283Z,100504.95
2023-03-02T07:11:10.898Z,100512.09
2023-03-02T07:12:19.964Z,100509.36
2023-03-02T07:14:45.327Z,100505.52
2023-03-02T07:15:55.553Z,100511.17
2023-03-02T07:17:07.254Z,100504.04
2023-03-02T07:18:16.354Z,100505.72
2023-03-02T07:19:25.103Z,100507.63
2023-03-02T07:20:34.100Z,100506.64
2023-03-02T07:21:42.619Z,100505.72
2023-03-02T07:22:53.198Z,100503.19
2023-03-02T07:24:01.637Z,100504.17
2023-03-02T07:25:10.987Z,100503.25
2023-03-02T07:26:20.899Z,100500.69
2023-03-02T07:27:29.988Z,100503.68
2023-03-02T07:28:41.757Z,100506.47
2023-03-02T07:29:50.569Z,100505.72
2023-03-02T07:30:59.511Z,100509.20
2023-03-02T07:32:12.467Z,100513.48
2023-03-02T07:33:21.764Z,100504.47
2023-03-02T07:34:31.608Z,100501.73
2023-03-02T07:35:40.547Z,100504.47
2023-03-02T07:36:49.585Z,100506.28
2023-03-02T07:37:58.168Z,100503.55
2023-03-02T07:39:07.784Z,100504.53
2023-03-02T07:40:17.365Z,100495.92
2023-03-02T07:41:25.877Z,100497.73
2023-03-02T07:43:49.278Z,100498.84
2023-03-02T07:44:59.040Z,100500.03
2023-03-02T07:46:08.118Z,100494.63
2023-03-02T07:47:16.651Z,100498.55
2023-03-02T07:48:27.148Z,100502.20
2023-03-02T07:49:36.121Z,100499.53
2023-03-02T07:50:44.829Z,100491.41
2023-03-02T07:51:54.232Z,100492.39
2023-03-02T07:53:02.959Z,100489.50
2023-03-02T07:54:11.824Z,100498.47
2023-03-02T07:56:35.639Z,100488.19
2023-03-02T07:57:44.071Z,100491.21
2023-03-02T07:58:52.473Z,100484.77
2023-03-02T08:00:02.820Z,100493.52
2023-03-02T08:01:14.370Z,100487.20
2023-03-02T08:02:25.967Z,100489.67
2023-03-02T08:03:36.800Z,100487.20
2023-03-02T08:04:45.513Z,100485.23
2023-03-02T08:05:53.970Z,100484.47
2023-03-02T08:07:02.734Z,100479.84
2023-03-02T08:08:11.376Z,100475.98
2023-03-02T08:09:20.502Z,100479.34
2023-03-02T08:10:30.367Z,100483.65
2023-03-02T08:11:39.178Z,100479.20
2023-03-02T08:12:48.616Z,100476.47
2023-03-02T08:14:02.131Z,100470.39
2023-03-02T08:16:26.949Z,100477.74
2023-03-02T08:18:50.809Z,100469.78
2023-03-02T08:20:00.518Z,100479.14
2023-03-02T08:21:15.509Z,100471.14
2023-03-02T08:23:40.228Z,100468.61
2023-03-02T08:24:48.782Z,100483.36
2023-03-02T08:25:57.695Z,100483.55
2023-03-02T08:27:06.854Z,100478.52
2023-03-02T08:28:15.765Z,100479.83
2023-03-02T08:29:24.305Z,100480.46
2023-03-02T08:30:34.407Z,100479.28
2023-03-02T08:32:57.853Z,100461.68
2023-03-02T08:34:07.639Z,100466.39
2023-03-02T08:35:16.864Z,100470.96
2023-03-02T08:36:25.644Z,100467.81
2023-03-02T08:37:36.790Z,100461.69
2023-03-02T08:38:46.401Z,100460.64
2023-03-02T08:39:57.915Z,100466.33
2023-03-02T08:42:24.490Z,100464.65
2023-03-02T08:43:34.756Z,100471.23
2023-03-02T08:44:43.561Z,100473.95
2023-03-02T08:45:58.865Z,100471.91
2023-03-02T08:47:08.298Z,100477.97
2023-03-02T08:48:16.920Z,100472.97
2023-03-02T08:49:25.872Z,100475.37
2023-03-02T08:50:34.630Z,100470.04
2023-03-02T08:51:46.441Z,100483.16
2023-03-02T08:52:54.851Z,100478.52
2023-03-02T08:54:05.856Z,100478.45
2023-03-02T08:55:14.568Z,100483.55
2023-03-02T08:56:27.799Z,100478.87
2023-03-02T08:59:13.373Z,100463.22
2023-03-02T09:01:38.484Z,100469.33
2023-03-02T09:04:04.155Z,100474.02
2023-03-02T09:05:13.177Z,100477.02
2023-03-02T09:07:36.650Z,100460.69
2023-03-02T09:08:46.666Z,100467.29
2023-03-02T09:11:11.315Z,100466.81
2023-03-02T09:12:21.522Z,100474.19
2023-03-02T09:13:30.757Z,100467.80
2023-03-02T09:15:55.265Z,100460.09
2023-03-02T09:17:05.432Z,100462.02
2023-03-02T09:18:14.502Z,100467.21
2023-03-02T09:19:24.175Z,100463.62
2023-03-02T09:20:34.996Z,100467.75
2023-03-02T09:21:43.320Z,100459.28
2023-03-02T09:24:07.464Z,100455.55
2023-03-02T09:26:34.939Z,100454.56
2023-03-02T09:29:00.707Z,100458.61
2023-03-02T09:31:27.929Z,100451.15
2023-03-02T09:32:36.583Z,100459.43
2023-03-02T09:33:45.846Z,100465.62
2023-03-02T09:34:55.430Z,100458.44
2023-03-02T09:36:11.906Z,100465.37
2023-03-02T09:37:20.346Z,100459.96
2023-03-02T09:38:29.024Z,100461.59
2023-03-02T09:41:20.288Z,100452.20
2023-03-02T09:42:49.842Z,100460.53
2023-03-02T09:46:12.510Z,100455.54
2023-03-02T09:49:14.154Z,100465.47
2023-03-02T09:50:36.671Z,100467.82
2023-03-02T09:51:49.059Z,100466.89
2023-03-02T09:53:16.629Z,100457.83
2023-03-02T09:54:27.652Z,100470.27
2023-03-02T09:55:37.919Z,100465.75
2023-03-02T09:56:50.335Z,100467.47
2023-03-02T09:58:02.187Z,100469.88
2023-03-02T10:00:39.944Z,100454.77
2023-03-02T10:03:19.593Z,100460.55
2023-03-02T10:05:54.103Z,100452.69
2023-03-02T10:08:27.975Z,100445.39
2023-03-02T10:09:37.913Z,100446.84
2023-03-02T10:12:41.498Z,100435.88
2023-03-02T10:13:59.935Z,100447.69
2023-03-02T10:15:13.094Z,100444.24
2023-03-02T10:16:38.586Z,100446.91
2023-03-02T10:17:57.519Z,100445.95
2023-03-02T10:20:44.217Z,100431.93
2023-03-02T10:23:46.802Z,100426.59
2023-03-02T10:25:18.047Z,100434.09
2023-03-02T10:26:48.656Z,100441.13
2023-03-02T10:29:33.530Z,100438.56
2023-03-02T10:30:45.301Z,100433.79
2023-03-02T10:33:22.085Z,100433.37
2023-03-02T10:34:31.032Z,100436.31
2023-03-02T10:36:58.452Z,100436.81
2023-03-02T10:39:28.840Z,100431.48
2023-03-02T10:42:07.101Z,100431.28
2023-03-02T10:44:57.998Z,100430.40
2023-03-02T10:47:28.822Z,100432.37
2023-03-02T10:48:56.573Z,100436.70
2023-03-02T10:51:37.447Z,100429.55
2023-03-02T10:52:59.526Z,100432.64
2023-03-02T10:54:14.664Z,100428.23
2023-03-02T10:56:44.548Z,100413.65
2023-03-02T10:59:44.729Z,100411.27
2023-03-02T11:01:01.375Z,100421.45
2023-03-02T11:03:37.436Z,100418.12
2023-03-02T11:06:20.335Z,100400.20
2023-03-02T11:07:30.293Z,100416.12
2023-03-02T11:10:00.468Z,100411.97
2023-03-02T11:11:24.356Z,100421.30
2023-03-02T11:13:52.360Z,100412.63
2023-03-02T11:15:29.480Z,100418.40
2023-03-02T11:16:38.353Z,100411.89
2023-03-02T11:17:50.919Z,100415.29
2023-03-02T11:20:26.504Z,100405.74
2023-03-02T11:21:50.780Z,100415.78
2023-03-02T11:23:09.040Z,100411.94
2023-03-02T11:24:33.975Z,100406.44
2023-03-02T11:25:49.909Z,100402.75
2023-03-02T11:28:36.507Z,100397.12
2023-03-02T11:29:54.686Z,100401.17
2023-03-02T11:31:08.573Z,100399.44
2023-03-02T11:34:07.828Z,100393.27
2023-03-02T11:35:28.363Z,100399.92
2023-03-02T11:38:26.110Z,100401.37
2023-03-02T11:41:15.458Z,100405.53
2023-03-02T11:42:34.878Z,100407.00
2023-03-02T11:43:43.515Z,100405.27
2023-03-02T11:44:53.555Z,100409.43
2023-03-02T11:46:13.992Z,100405.75
2023-03-02T11:47:19.304Z,100400.19
2023-03-02T11:48:34.562Z,100389.42
2023-03-02T11:49:56.813Z,100391.20
2023-03-02T11:52:34.268Z,100384.47
2023-03-02T11:54:02.240Z,100389.55
2023-03-02T11:55:19.852Z,100392.09
2023-03-02T11:56:34.863Z,100389.26
2023-03-02T11:59:08.742Z,100372.52
2023-03-02T12:00:31.160Z,100377.38
2023-03-02T12:01:41.406Z,100380.91
2023-03-02T12:04:34.097Z,100371.48
2023-03-02T12:08:24.168Z,100371.33
2023-03-02T12:09:37.060Z,100375.05
2023-03-02T12:11:01.039Z,100378.48
2023-03-02T12:12:14.458Z,100373.94
2023-03-02T12:13:34.489Z,100373.98
2023-03-02T12:14:44.565Z,100370.47
2023-03-02T12:15:55.168Z,100372.13
2023-03-02T12:17:08.712Z,100371.27
2023-03-02T12:18:24.892Z,100367.80
2023-03-02T12:22:33.108Z,100368.09
2023-03-02T12:23:54.656Z,100366.69
2023-03-02T12:25:22.399Z,100361.52
2023-03-02T12:27:53.316Z,100362.28
2023-03-02T12:29:13.310Z,100370.86
2023-03-02T12:30:26.651Z,100361.09
2023-03-02T12:31:48.126Z,100361.02
2023-03-02T12:34:39.013Z,100348.28
2023-03-02T12:35:50.842Z,100357.73
2023-03-02T12:37:03.469Z,100363.86
2023-03-02T12:38:34.846Z,100353.25
2023-03-02T12:41:38.546Z,100357.11
2023-03-02T12:44:21.622Z,100351.05
2023-03-02T12:47:03.782Z,100353.55
2023-03-02T12:48:22.673Z,100357.58
2023-03-02T12:49:52.438Z,100356.64
2023-03-02T12:51:04.859Z,100351.12
2023-03-02T12:52:32.386Z,100352.23
2023-03-02T12:53:40.989Z,100350.27
2023-03-02T12:55:05.864Z,100350.10
2023-03-02T12:57:52.038Z,100341.53
2023-03-02T12:59:00.484Z,100346.63
2023-03-02T13:00:12.955Z,100347.34
2023-03-02T13:01:25.368Z,100342.77
2023-03-02T13:02:36.793Z,100341.75
2023-03-02T13:03:47.660Z,100338.22
2023-03-02T13:05:02.491Z,100335.37
2023-03-02T13:06:18.301Z,100339.70
2023-03-02T13:07:31.544Z,100321.70
2023-03-02T13:08:43.782Z,100331.34
2023-03-02T13:09:56.880Z,100330.41
2023-03-02T13:11:07.018Z,100322.47
2023-03-02T13:12:16.652Z,100321.70
2023-03-02T13:13:39.510Z,100330.48
2023-03-02T13:14:54.770Z,100327.05
2023-03-02T13:16:07.806Z,100324.86
2023-03-02T13:18:43.410Z,100318.14
2023-03-02T13:19:52.822Z,100323.59
2023-03-02T13:22:21.566Z,100312.80
2023-03-02T13:23:32.932Z,100316.62
2023-03-02T13:24:51.176Z,100319.38
2023-03-02T13:26:04.657Z,100321.89
2023-03-02T13:27:21.754Z,100328.34
2023-03-02T13:28:37.382Z,100324.31
2023-03-02T13:29:46.633Z,100319.52
2023-03-02T13:32:28.151Z,100311.03
2023-03-02T13:34:59.049Z,100308.98
2023-03-02T13:37:41.593Z,100314.33
2023-03-02T13:38:53.786Z,100310.39
2023-03-02T13:40:06.732Z,100314.80
2023-03-02T13:41:29.336Z,100314.72
2023-03-02T13:42:41.159Z,100314.72
2023-03-02T13:43:50.414Z,100310.17
2023-03-02T13:45:20.529Z,100311.03
2023-03-02T13:47:51.158Z,100300.70
2023-03-02T13:49:10.090Z,100312.13
2023-03-02T13:50:22.748Z,100310.23
2023-03-02T13:51:44.095Z,100304.83
2023-03-02T13:52:57.125Z,100302.30
2023-03-02T13:55:41.158Z,100297.49
2023-03-02T13:58:11.845Z,100294.98
2023-03-02T13:59:23.045Z,100296.35
2023-03-02T14:00:35.576Z,100304.45
2023-03-02T14:01:44.852Z,100299.95
2023-03-02T14:02:53.427Z,100297.20
2023-03-02T14:04:03.763Z,100297.38
2023-03-02T14:06:37.159Z,100282.73
2023-03-02T14:07:46.730Z,100291.31
2023-03-02T14:08:55.400Z,100297.67
2023-03-02T14:10:05.880Z,100292.50
2023-03-02T14:11:17.050Z,100291.81
2023-03-02T14:12:28.854Z,100293.69
2023-03-02T14:13:48.177Z,100286.52
2023-03-02T14:15:00.235Z,100294.70
2023-03-02T14:16:18.466Z,100286.52
2023-03-02T14:17:27.665Z,100283.00
2023-03-02T14:18:43.476Z,100281.98
2023-03-02T14:19:53.277Z,100282.06
2023-03-02T14:21:02.602Z,100281.17
2023-03-02T14:22:12.437Z,100284.73
2023-03-02T14:23:21.594Z,100281.13
2023-03-02T14:25:46.768Z,100273.70
2023-03-02T14:26:55.527Z,100274.13
2023-03-02T14:28:05.750Z,100278.50
2023-03-02T14:29:24.766Z,100268.23
2023-03-02T14:30:34.192Z,100270.73
2023-03-02T14:31:44.068Z,100272.09
2023-03-02T14:32:52.862Z,100268.23
2023-03-02T14:34:02.705Z,100270.99
2023-03-02T14:35:13.866Z,100273.80
2023-03-02T14:36:29.523Z,100271.84
2023-03-02T14:37:41.555Z,100271.76
2023-03-02T14:38:50.222Z,100269.89
2023-03-02T14:39:59.399Z,100265.31
2023-03-02T14:42:30.253Z,100268.28
2023-03-02T14:43:39.049Z,100268.07
2023-03-02T14:44:51.529Z,100265.73
2023-03-02T14:46:01.214Z,100274.34
2023-03-02T14:47:10.383Z,100269.09
2023-03-02T14:48:19.349Z,100270.73
2023-03-02T14:49:28.570Z,100261.23
2023-03-02T14:50:41.343Z,100264.77
2023-03-02T14:52:27.971Z,100268.23
2023-03-02T14:56:24.468Z,100262.42
2023-03-02T14:57:36.314Z,100265.64
2023-03-02T15:00:01.026Z,100269.38
2023-03-02T15:01:11.853Z,100267.13
2023-03-02T15:02:25.817Z,100252.03
2023-03-02T15:04:47.408Z,100254.16
2023-03-02T15:06:01.266Z,100256.66
2023-03-02T15:08:27.807Z,100256.99
2023-03-02T15:09:37.665Z,100256.61
2023-03-02T15:10:49.202Z,100257.38
2023-03-02T15:11:57.879Z,100252.12
2023-03-02T15:13:07.230Z,100253.23
2023-03-02T15:14:16.394Z,100260.30
2023-03-02T15:15:26.918Z,100265.86
2023-03-02T15:16:36.591Z,100262.26
2023-03-02T15:17:45.788Z,100255.90
2023-03-02T15:18:56.383Z,100258.48
2023-03-02T15:20:07.585Z,100258.41
2023-03-02T15:21:22.113Z,100267.22
2023-03-02T15:22:31.513Z,100258.18
2023-03-02T15:23:40.176Z,100266.25
2023-03-02T15:26:04.169Z,100254.83
2023-03-02T15:27:12.641Z,100259.89
2023-03-02T15:29:36.105Z,100255.89
2023-03-02T15:32:02.653Z,100249.06
2023-03-02T15:33:11.476Z,100249.62
2023-03-02T15:34:20.291Z,100260.22
2023-03-02T15:35:29.756Z,100254.08
2023-03-02T15:36:39.392Z,100253.31
2023-03-02T15:37:48.454Z,100257.77
2023-03-02T15:38:57.468Z,100257.94
2023-03-02T15:41:25.429Z,100253.05
2023-03-02T15:42:34.186Z,100256.28
2023-03-02T15:43:45.312Z,100261.63
2023-03-02T15:44:54.501Z,100258.02
2023-03-02T15:46:06.369Z,100259.84
2023-03-02T15:47:15.329Z,100259.92
2023-03-02T15:48:24.981Z,100258.27
2023-03-02T15:49:33.676Z,100263.61
2023-03-02T15:50:42.797Z,100259.28
2023-03-02T15:51:52.512Z,100261.10
2023-03-02T15:53:01.039Z,100261.16
2023-03-02T15:54:11.212Z,100253.14
2023-03-02T15:55:19.889Z,100264.71
2023-03-02T15:56:35.775Z,100263.83
2023-03-02T15:57:41.136Z,100268.31
2023-03-02T15:58:50.223Z,100266.58
2023-03-02T15:59:59.496Z,100262.20
2023-03-02T16:01:11.013Z,100262.20
2023-03-02T16:02:19.653Z,100265.00
2023-03-02T16:03:29.387Z,100270.34
2023-03-02T16:04:38.595Z,100270.42
2023-03-02T16:05:48.092Z,100266.05
2023-03-02T16:06:59.273Z,100265.42
2023-03-02T16:08:08.483Z,100271.69
2023-03-02T16:09:18.477Z,100275.30
2023-03-02T16:10:30.043Z,100278.93